Airfield :
LOGIN :

Register | Disclaimer

   EN    FR    IT 

 










Legend :    VFR   Marginal VFR   IFR   Intensive IFR   Very Intensive IFR
Visi :
Ceiling :
>= 8 km
>= 3000ft
5 to 8 km
1000 to 3000 ft
1500m to 5 km
500 to 1000 ft
800 to 1500m
200 to 500 ft
< 800m
< 200 ft
Symbols :   Thunderstorms  Fog  Heavy snow  Heavy precipitations  Wind > 20 kt
SIGMETs :     Misc.  Thunderstorms  Icing  Turbulence  Mountain Waves  Volcanic Ashes







- Airport Elevation : 7 ft
- IATA code : XHE
- Download approach charts


LFTH - Hyeres

CURRENT METAR :
  • 211900Z AUTO 23010KT CAVOK 25/16 Q1013 NOSIG

EXPIRED METARs :
  • 211830Z AUTO 23012KT CAVOK 26/15 Q1013 NOSIG
  • 211800Z AUTO 24014KT 220V280 CAVOK 28/14 Q1013 NOSIG
  • 211730Z AUTO 25014KT 230V290 CAVOK 28/14 Q1013 NOSIG
  • 211700Z AUTO 26012KT CAVOK 28/14 Q1013 NOSIG
  • 211630Z AUTO 26015KT CAVOK 29/15 Q1013 NOSIG

TAF TAF LFTH
Valid from the 21 at 09:00 until the 22 at 09:00 UTC


210800Z 2109/2209 21005KT CAVOK
BECMG 2113/2115 24015G25KT
BECMG 2123/2201 29008KT
BECMG 2205/2207 32005G15KT
No reported NOTAMs for that airfield.



MET'MAP, your aeronautical weather chart ! - Copyright ORBIFLY December 2007 - Disclaimer

ORBIFLY MET'MAP TEAM :

Programming & Development : Alexandra Zaïnal
Concept & Development : Baudouin d'Aumeries
Co-Development & Prog : Marc-Olivier Méhu
Technical & hardware support : Manuel Goepfert

Contact : metmap@orbifly.com




SOURCES & CREDITS :

   NOAA